»·PEaware :: N58EU KVNY-KTOA

N58EU :: KVNY-KTOA

FLIGHT INFORMATION

Flight Status: Arrived
Operator: Privately registered:
United States
More flights under this callsign
Pilot: Anonymous 26289 (26289)
Aircraft: BEECH AIRCRAFT BARON
(BE58)
More flights by this aircraft type
Origin: KVNY Van Nuys
United States
Destination: KTOA Zamperini
United States
More flights between these airports :: More routes between these airports
Route: ADAMM2 ADAMM V394 SLI
File this flight plan on PilotEdge
Remarks: TEC route BURP19
Altitude:
(Current/Filed)
5,000ft
Speed:
(Current/Filed)
150kts
Departed: 27-Dec-19 12:55 PM
Arrived: 27-Dec-19 01:38 PM
Distance/Time
Traveled:
26nm/0:43
Distance/Time
To Go:
Arrived

Flight Plot

Page will automatically refresh every two minutes.


Map Options




Map Legend


Flown Route
Filed Route
Departure Airport
Arrival Airport
Navaid (VOR, NDB)
Fix

Horizontal Profiles

Position Reports

Time Latitude Longitude Heading Altitude Ground
Speed
27-Dec-19 12:24 34.199168 -118.490820 177 805ft 0kts
27-Dec-19 12:25 34.199168 -118.490820 177 805ft 0kts
27-Dec-19 12:26 34.199168 -118.490820 177 805ft 0kts
27-Dec-19 12:27 34.199168 -118.490820 177 805ft 0kts
27-Dec-19 12:28 34.199168 -118.490820 177 805ft 0kts
27-Dec-19 12:29 34.199168 -118.490820 177 805ft 0kts
27-Dec-19 12:30 34.199168 -118.490820 177 805ft 0kts
27-Dec-19 12:31 34.199168 -118.490820 177 805ft 0kts
27-Dec-19 12:32 34.199168 -118.490820 177 805ft 0kts
27-Dec-19 12:33 34.199168 -118.490820 177 805ft 0kts
27-Dec-19 12:34 34.199168 -118.490820 177 805ft 0kts
27-Dec-19 12:35 34.199168 -118.490820 177 805ft 0kts
27-Dec-19 12:36 34.199168 -118.490820 177 805ft 0kts
27-Dec-19 12:37 34.199168 -118.490820 177 805ft 0kts
27-Dec-19 12:38 34.199168 -118.490820 177 805ft 0kts
27-Dec-19 12:39 34.199168 -118.490820 177 805ft 0kts
27-Dec-19 12:40 34.199168 -118.490820 177 805ft 0kts
27-Dec-19 12:41 34.199168 -118.490820 177 805ft 0kts
27-Dec-19 12:42 34.199168 -118.490820 177 805ft 0kts
27-Dec-19 12:43 34.199080 -118.490791 143 805ft 3kts
27-Dec-19 12:45 34.198476 -118.490136 174 805ft 3kts
27-Dec-19 12:46 34.197378 -118.490035 177 805ft 4kts
27-Dec-19 12:47 34.196628 -118.489990 23 805ft 0kts
27-Dec-19 12:48 34.196628 -118.489990 24 805ft 0kts
27-Dec-19 12:49 34.196628 -118.489989 24 805ft 0kts
27-Dec-19 12:50 34.196791 -118.489998 351 805ft 1kts
27-Dec-19 12:51 34.197034 -118.489930 62 805ft 0kts
27-Dec-19 12:52 34.197034 -118.489930 62 805ft 0kts
27-Dec-19 12:53 34.197034 -118.489930 62 805ft 0kts
27-Dec-19 12:54 34.197104 -118.489505 58 805ft 4kts
27-Dec-19 12:55 34.212663 -118.489567 354 1222ft 108kts
27-Dec-19 12:56 34.218257 -118.523231 267 2404ft 127kts
27-Dec-19 12:57 34.211825 -118.565620 263 3394ft 128kts
27-Dec-19 12:58 34.204791 -118.609783 263 4030ft 155kts
27-Dec-19 12:59 34.195485 -118.664160 241 4520ft 170kts
27-Dec-19 13:00 34.152734 -118.669603 139 5032ft 186kts
27-Dec-19 13:01 34.139441 -118.614219 92 5024ft 172kts
27-Dec-19 13:02 34.130380 -118.557675 99 5022ft 170kts
27-Dec-19 13:03 34.121838 -118.501179 99 5019ft 170kts
27-Dec-19 13:04 34.113416 -118.445205 99 5015ft 169kts
27-Dec-19 13:05 34.104895 -118.388729 99 5010ft 171kts
27-Dec-19 13:05 34.098104 -118.343939 99 5003ft 171kts
27-Dec-19 13:07 34.088246 -118.279059 98 5006ft 167kts
27-Dec-19 13:07 34.081277 -118.233239 97 5015ft 165kts
27-Dec-19 13:08 34.073005 -118.179021 97 5026ft 162kts
27-Dec-19 13:10 34.063493 -118.116839 97 5046ft 159kts
27-Dec-19 13:10 34.056801 -118.073246 97 5052ft 157kts
27-Dec-19 13:11 34.048814 -118.021420 97 5049ft 155kts
27-Dec-19 13:12 34.040925 -117.970310 97 5045ft 153kts
27-Dec-19 13:13 34.033149 -117.920056 98 5041ft 151kts
27-Dec-19 13:14 34.025429 -117.870341 98 5038ft 149kts
27-Dec-19 13:15 34.007473 -117.827661 157 4863ft 164kts
27-Dec-19 13:16 33.961253 -117.843645 200 4188ft 181kts
27-Dec-19 13:17 33.916197 -117.865647 199 3965ft 156kts
27-Dec-19 13:18 33.877397 -117.884173 200 4033ft 140kts
27-Dec-19 13:19 33.841636 -117.900027 192 4036ft 134kts
27-Dec-19 13:20 33.805348 -117.908292 191 4035ft 131kts
27-Dec-19 13:21 33.769143 -117.916405 192 3866ft 136kts
27-Dec-19 13:22 33.731771 -117.924596 192 3167ft 137kts
27-Dec-19 13:23 33.694149 -117.932866 192 2466ft 137kts
27-Dec-19 13:24 33.657607 -117.941066 200 2024ft 119kts
27-Dec-19 13:25 33.649956 -117.973687 271 2038ft 116kts
27-Dec-19 13:26 33.650823 -118.014124 272 2037ft 123kts
27-Dec-19 13:27 33.651565 -118.055884 272 2036ft 125kts
27-Dec-19 13:28 33.652644 -118.098117 273 2036ft 126kts
27-Dec-19 13:29 33.664793 -118.135070 317 2037ft 123kts
27-Dec-19 13:30 33.688017 -118.165708 310 2036ft 123kts
27-Dec-19 13:31 33.709086 -118.196868 309 2035ft 116kts
27-Dec-19 13:32 33.729118 -118.226930 308 2035ft 113kts
27-Dec-19 13:33 33.748123 -118.255496 308 1948ft 111kts
27-Dec-19 13:34 33.767523 -118.284646 307 1309ft 104kts
27-Dec-19 13:35 33.784033 -118.309495 307 725ft 91kts
27-Dec-19 13:36 33.799920 -118.333403 307 142ft 89kts
27-Dec-19 13:37 33.805235 -118.341618 290 106ft 12kts
27-Dec-19 13:38 33.805879 -118.343854 289 106ft 0kts
27-Dec-19 13:39 33.805879 -118.343855 289 106ft 0kts
27-Dec-19 13:40 33.805949 -118.344980 226 106ft 4kts
27-Dec-19 13:41 33.805117 -118.345217 128 106ft 5kts
27-Dec-19 13:42 33.804477 -118.344246 127 106ft 4kts
27-Dec-19 13:43 33.803625 -118.342961 128 106ft 5kts
27-Dec-19 13:44 33.802894 -118.342313 209 106ft 4kts
27-Dec-19 13:45 33.802178 -118.342543 102 106ft 2kts
27-Dec-19 13:46 33.802251 -118.342418 40 106ft 0kts

Navigation Log

Ident Type
Flight plan parsing failed, navigation log unavailable